createdAt,value
2018-12-01T00:01:08.122Z,98.14
2018-12-01T00:02:18.335Z,97.96
2018-12-01T00:03:28.486Z,98.24
2018-12-01T00:04:38.617Z,97.86
2018-12-01T00:05:48.755Z,97.96
2018-12-01T00:06:58.660Z,97.96
2018-12-01T00:08:10.893Z,98.05
2018-12-01T00:09:20.773Z,98.14
2018-12-01T00:10:30.917Z,98.14
2018-12-01T00:11:41.084Z,98.05
2018-12-01T00:12:51.247Z,97.86
2018-12-01T00:14:02.431Z,98.14
2018-12-01T00:15:12.308Z,97.77
2018-12-01T00:16:22.517Z,98.24
2018-12-01T00:17:32.405Z,98.24
2018-12-01T00:18:42.589Z,98.24
2018-12-01T00:19:52.768Z,98.14
2018-12-01T00:21:02.901Z,98.14
2018-12-01T00:22:13.064Z,98.05
2018-12-01T00:23:22.900Z,97.96
2018-12-01T00:24:33.013Z,97.96
2018-12-01T00:25:43.204Z,98.24
2018-12-01T00:26:53.331Z,97.86
2018-12-01T00:28:03.523Z,98.24
2018-12-01T00:29:13.644Z,98.05
2018-12-01T00:30:23.776Z,98.24
2018-12-01T00:31:34.038Z,98.24
2018-12-01T00:32:44.419Z,98.14
2018-12-01T00:33:54.291Z,97.86
2018-12-01T00:35:04.434Z,97.86
2018-12-01T00:36:14.608Z,97.96
2018-12-01T00:37:24.871Z,97.96
2018-12-01T00:38:34.997Z,97.96
2018-12-01T00:39:44.880Z,97.96
2018-12-01T00:40:55.004Z,97.86
2018-12-01T00:42:05.208Z,98.24
2018-12-01T00:43:15.342Z,98.24
2018-12-01T00:44:25.478Z,98.24
2018-12-01T00:45:35.337Z,97.86
2018-12-01T00:46:45.470Z,97.86
2018-12-01T00:47:55.298Z,97.86
2018-12-01T00:49:05.777Z,97.86
2018-12-01T00:50:15.919Z,98.14
2018-12-01T00:51:26.074Z,98.05
2018-12-01T00:52:35.948Z,97.96
2018-12-01T00:53:45.844Z,98.14
2018-12-01T00:54:55.834Z,97.86
2018-12-01T00:56:05.707Z,97.86
2018-12-01T00:57:15.846Z,98.24
2018-12-01T00:58:25.995Z,98.05
2018-12-01T00:59:36.136Z,98.14
2018-12-01T01:00:46.330Z,98.24
2018-12-01T01:01:56.478Z,98.05
2018-12-01T01:03:06.609Z,97.86
2018-12-01T01:04:16.470Z,98.05
2018-12-01T01:05:26.196Z,98.05
2018-12-01T01:06:36.381Z,98.14
2018-12-01T01:07:46.251Z,97.96
2018-12-01T01:08:56.390Z,98.24
2018-12-01T01:10:07.774Z,98.14
2018-12-01T01:11:17.927Z,97.96
2018-12-01T01:12:28.086Z,97.96
2018-12-01T01:13:38.474Z,97.86
2018-12-01T01:14:48.609Z,97.86
2018-12-01T01:15:58.740Z,97.96
2018-12-01T01:17:08.870Z,98.24
2018-12-01T01:18:18.790Z,98.24
2018-12-01T01:19:28.918Z,98.14
2018-12-01T01:20:39.050Z,98.05
2018-12-01T01:21:49.163Z,98.24
2018-12-01T01:22:59.289Z,98.24
2018-12-01T01:24:09.132Z,98.24
2018-12-01T01:25:19.505Z,98.05
2018-12-01T01:26:29.644Z,97.96
2018-12-01T01:27:39.777Z,97.96
2018-12-01T01:28:50.052Z,97.96
2018-12-01T01:30:00.180Z,97.96
2018-12-01T01:31:10.055Z,98.05
2018-12-01T01:32:19.944Z,98.14
2018-12-01T01:33:29.824Z,98.14
2018-12-01T01:34:39.691Z,97.96
2018-12-01T01:35:49.607Z,98.05
2018-12-01T01:36:59.735Z,97.96
2018-12-01T01:38:09.842Z,98.14
2018-12-01T01:39:19.721Z,97.96
2018-12-01T01:40:29.861Z,98.14
2018-12-01T01:41:40.038Z,98.05
2018-12-01T01:42:49.914Z,97.96
2018-12-01T01:44:00.054Z,97.96
2018-12-01T01:45:10.300Z,97.96
2018-12-01T01:46:20.418Z,97.86
2018-12-01T01:47:30.549Z,98.05
2018-12-01T01:48:40.669Z,98.05
2018-12-01T01:49:50.794Z,97.96
2018-12-01T01:51:00.921Z,98.14
2018-12-01T01:52:11.054Z,98.14
2018-12-01T01:53:21.193Z,98.14
2018-12-01T01:54:31.060Z,97.96
2018-12-01T01:55:41.179Z,97.86
2018-12-01T01:56:51.308Z,97.96
2018-12-01T01:58:01.460Z,98.14
2018-12-01T01:59:11.338Z,97.96
2018-12-01T02:00:21.570Z,98.05
2018-12-01T02:01:31.744Z,98.05
2018-12-01T02:02:41.618Z,98.05
2018-12-01T02:03:51.866Z,98.24
2018-12-01T02:05:02.062Z,98.05
2018-12-01T02:06:12.186Z,97.96
2018-12-01T02:07:22.015Z,97.96
2018-12-01T02:08:32.141Z,97.86
2018-12-01T02:09:42.290Z,97.96
2018-12-01T02:10:52.532Z,97.96
2018-12-01T02:12:03.079Z,97.96
2018-12-01T02:13:13.208Z,98.14
2018-12-01T02:14:23.103Z,98.14
2018-12-01T02:15:33.246Z,97.96
2018-12-01T02:16:43.195Z,98.14
2018-12-01T02:17:53.314Z,98.14
2018-12-01T02:19:03.749Z,98.14
2018-12-01T02:20:13.609Z,98.14
2018-12-01T02:21:23.755Z,98.05
2018-12-01T02:22:33.914Z,98.33
2018-12-01T02:23:44.040Z,98.33
2018-12-01T02:24:53.904Z,98.14
2018-12-01T02:26:04.616Z,98.33
2018-12-01T02:27:14.752Z,98.33
2018-12-01T02:28:24.672Z,97.96
2018-12-01T02:29:34.580Z,97.96
2018-12-01T02:30:44.767Z,98.33
2018-12-01T02:31:55.159Z,98.33
2018-12-01T02:33:05.819Z,98.33
2018-12-01T02:34:15.413Z,98.05
2018-12-01T02:35:25.520Z,98.14
2018-12-01T02:36:35.382Z,98.43
2018-12-01T02:37:45.607Z,98.24
2018-12-01T02:38:55.955Z,98.14
2018-12-01T02:40:08.404Z,98.05
2018-12-01T02:41:18.582Z,97.96
2018-12-01T02:42:28.715Z,98.39
2018-12-01T02:43:38.544Z,98.33
2018-12-01T02:44:48.669Z,98.14
2018-12-01T02:45:58.774Z,98.05
2018-12-01T02:47:10.439Z,98.14
2018-12-01T02:48:20.572Z,97.96
2018-12-01T02:49:30.716Z,98.58
2018-12-01T02:50:40.858Z,98.67
2018-12-01T02:51:51.031Z,98.86
2018-12-01T02:53:01.310Z,98.86
2018-12-01T02:54:11.432Z,98.67
2018-12-01T02:55:21.558Z,98.67
2018-12-01T02:56:31.423Z,98.86
2018-12-01T02:57:41.263Z,98.48
2018-12-01T02:58:50.852Z,98.2
2018-12-01T03:00:00.981Z,98.77
2018-12-01T03:01:11.122Z,98.2
2018-12-01T03:02:21.491Z,98.2
2018-12-01T03:03:31.463Z,98.77
2018-12-01T03:35:06.958Z,90.87
2018-12-01T03:36:17.091Z,91.44
2018-12-01T03:37:27.198Z,92.38
2018-12-01T03:38:37.318Z,92.76
2018-12-01T03:39:47.408Z,94.56
2018-12-01T03:40:57.287Z,94.93
2018-12-01T03:42:07.430Z,95.87
2018-12-01T03:43:17.556Z,96.59
2018-12-01T03:44:27.894Z,97.72
2018-12-01T03:45:38.030Z,97.34
2018-12-01T03:46:47.909Z,97.81
2018-12-01T03:47:58.060Z,98.28
2018-12-01T03:49:10.703Z,97.91
2018-12-01T03:50:20.835Z,98.1
2018-12-01T03:51:31.163Z,98.38
2018-12-01T03:52:41.346Z,98.47
2018-12-01T03:53:51.920Z,98.57
2018-12-01T03:55:02.052Z,98.9
2018-12-01T03:56:12.230Z,98.71
2018-12-01T03:57:22.104Z,98.71
2018-12-01T03:58:32.221Z,98.81
2018-12-01T03:59:42.543Z,98.71
2018-12-01T04:00:52.433Z,98.71
2018-12-01T04:02:02.847Z,98.9
2018-12-01T04:03:12.723Z,98.9
2018-12-01T04:04:22.906Z,98.81
2018-12-01T04:05:32.736Z,98.81
2018-12-01T04:06:42.860Z,98.62
2018-12-01T04:07:53.230Z,98.71
2018-12-01T04:09:03.358Z,98.71
2018-12-01T04:10:13.538Z,98.62
2018-12-01T04:11:23.669Z,98.62
2018-12-01T04:12:33.789Z,98.24
2018-12-01T04:13:44.033Z,98.62
2018-12-01T04:14:53.856Z,98.62
2018-12-01T04:16:03.982Z,98.52
2018-12-01T04:17:14.118Z,98.62
2018-12-01T04:18:24.241Z,98.62
2018-12-01T04:19:34.358Z,98.43
2018-12-01T04:20:44.484Z,98.62
2018-12-01T04:21:54.673Z,98.62
2018-12-01T04:23:04.806Z,98.48
2018-12-01T04:24:14.935Z,98.9
2018-12-01T04:25:25.063Z,98.48
2018-12-01T04:26:35.198Z,98.52
2018-12-01T04:27:45.384Z,98.58
2018-12-01T04:28:55.299Z,98.33
2018-12-01T04:30:05.199Z,98.77
2018-12-01T04:31:15.124Z,98.77
2018-12-01T04:32:25.248Z,98.96
2018-12-01T04:33:35.433Z,98.43
2018-12-01T04:37:34.490Z,98.9
2018-12-01T04:38:44.390Z,98.48
2018-12-01T04:39:54.253Z,98.71
2018-12-01T04:41:05.420Z,98.52
2018-12-01T04:42:15.562Z,98.77
2018-12-01T04:43:25.758Z,98.58
2018-12-01T04:44:35.939Z,98.58
2018-12-01T04:45:46.103Z,98.33
2018-12-01T04:46:56.231Z,98.62
2018-12-01T04:48:06.775Z,98.58
2018-12-01T04:49:16.661Z,98.2
2018-12-01T04:50:26.942Z,98.33
2018-12-01T04:51:37.117Z,98.71
2018-12-01T04:52:47.495Z,98.62
2018-12-01T04:53:57.673Z,98.43
2018-12-01T04:55:07.823Z,98.39
2018-12-01T04:56:17.692Z,98.77
2018-12-01T04:57:27.915Z,98.62
2018-12-01T04:58:38.103Z,98.58
2018-12-01T04:59:48.673Z,98.52
2018-12-01T05:00:58.802Z,98.58
2018-12-01T05:02:08.923Z,98.77
2018-12-01T05:03:19.071Z,98.77
2018-12-01T05:04:28.887Z,98.58
2018-12-01T05:05:39.025Z,98.77
2018-12-01T05:06:48.932Z,98.67
2018-12-01T05:07:58.809Z,98.77
2018-12-01T05:09:08.942Z,98.67
2018-12-01T05:10:19.067Z,98.58
2018-12-01T05:11:28.986Z,98.48
2018-12-01T05:12:39.186Z,98.48
2018-12-01T05:13:49.038Z,98.67
2018-12-01T05:14:59.181Z,98.58
2018-12-01T05:16:10.367Z,98.58
2018-12-01T05:17:20.509Z,98.77
2018-12-01T05:18:30.648Z,98.58
2018-12-01T05:19:40.516Z,98.58
2018-12-01T05:20:50.627Z,98.48
2018-12-01T05:22:00.524Z,98.39
2018-12-01T05:23:10.658Z,98.77
2018-12-01T05:24:20.773Z,98.67
2018-12-01T05:25:30.905Z,98.67
2018-12-01T05:26:41.260Z,98.58
2018-12-01T05:27:51.169Z,98.77
2018-12-01T05:29:01.281Z,98.77
2018-12-01T05:30:10.829Z,98.67
2018-12-01T05:31:20.990Z,98.67
2018-12-01T05:32:30.927Z,98.86
2018-12-01T05:33:41.306Z,98.67
2018-12-01T05:34:51.494Z,98.67
2018-12-01T05:36:01.668Z,98.67
2018-12-01T05:37:12.539Z,98.67
2018-12-01T05:38:22.662Z,98.58
2018-12-01T05:39:32.568Z,98.67
2018-12-01T05:40:42.676Z,98.48
2018-12-01T05:41:52.795Z,98.67
2018-12-01T05:43:04.555Z,98.67
2018-12-01T05:44:14.783Z,98.77
2018-12-01T05:45:24.643Z,98.48
2018-12-01T05:46:34.797Z,98.58
2018-12-01T05:47:45.157Z,98.96
2018-12-01T05:48:55.299Z,98.67
2018-12-01T05:50:06.215Z,98.58
2018-12-01T05:51:16.342Z,98.58
2018-12-01T05:52:26.224Z,98.58
2018-12-01T05:53:36.334Z,98.67
2018-12-01T05:54:46.231Z,98.58
2018-12-01T05:55:56.410Z,98.86
2018-12-01T05:57:06.731Z,98.58
2018-12-01T05:58:16.919Z,98.58
2018-12-01T05:59:27.102Z,98.67
2018-12-01T06:00:36.977Z,98.58
2018-12-01T06:01:47.098Z,98.67
2018-12-01T06:02:57.180Z,98.67
2018-12-01T06:04:07.298Z,98.67
2018-12-01T06:05:17.483Z,98.58
2018-12-01T06:06:27.614Z,98.48
2018-12-01T06:07:37.735Z,98.48
2018-12-01T06:08:47.881Z,98.58
2018-12-01T06:09:57.759Z,98.58
2018-12-01T06:11:08.142Z,98.58
2018-12-01T06:12:18.011Z,98.58
2018-12-01T06:13:28.205Z,98.48
2018-12-01T06:14:38.140Z,98.67
2018-12-01T06:15:48.373Z,98.58
2018-12-01T06:16:58.516Z,98.77
2018-12-01T06:18:08.648Z,98.58
2018-12-01T06:19:18.543Z,98.48
2018-12-01T06:20:28.674Z,98.58
2018-12-01T06:21:38.826Z,98.67
2018-12-01T06:22:49.009Z,98.48
2018-12-01T06:23:59.140Z,98.58
2018-12-01T06:25:10.769Z,98.48
2018-12-01T06:26:20.914Z,98.48
2018-12-01T06:27:31.601Z,98.67
2018-12-01T06:28:41.606Z,98.67
2018-12-01T06:29:51.735Z,98.67
2018-12-01T06:31:01.884Z,98.77
2018-12-01T06:32:11.504Z,98.77
2018-12-01T06:33:21.634Z,98.77
2018-12-01T06:34:31.562Z,98.58
2018-12-01T06:35:41.698Z,98.67
2018-12-01T06:36:51.871Z,98.2
2018-12-01T06:38:02.054Z,98.29
2018-12-01T06:39:11.655Z,98.58
2018-12-01T06:40:21.879Z,98.58
2018-12-01T06:41:32.077Z,98.39
2018-12-01T06:42:42.238Z,98.67
2018-12-01T06:43:52.124Z,98.67
2018-12-01T06:45:02.236Z,98.77
2018-12-01T06:46:12.363Z,98.67
2018-12-01T06:47:22.253Z,98.58
2018-12-01T06:48:32.370Z,98.58
2018-12-01T06:49:42.509Z,98.67
2018-12-01T06:50:52.627Z,98.67
2018-12-01T06:52:03.117Z,98.86
2018-12-01T06:53:13.290Z,98.39
2018-12-01T06:54:23.168Z,98.67
2018-12-01T06:55:33.303Z,98.86
2018-12-01T06:56:43.172Z,98.67
2018-12-01T06:57:53.318Z,98.67
2018-12-01T06:59:06.462Z,98.39
2018-12-01T07:00:16.681Z,98.01
2018-12-01T07:01:26.808Z,98.67
2018-12-01T07:02:36.945Z,98.77
2018-12-01T07:03:46.883Z,98.77
2018-12-01T07:04:56.770Z,98.48
2018-12-01T07:06:06.926Z,98.2
2018-12-01T07:07:17.063Z,98.2
2018-12-01T07:08:27.372Z,98.29
2018-12-01T07:09:37.514Z,98.39
2018-12-01T07:10:47.663Z,98.39
2018-12-01T07:11:57.798Z,98.1
2018-12-01T07:13:09.079Z,98.1
2018-12-01T07:14:19.233Z,98.39
2018-12-01T07:15:30.002Z,98.29
2018-12-01T07:16:39.966Z,98.2
2018-12-01T07:17:50.103Z,98.01
2018-12-01T07:18:59.917Z,98.1
2018-12-01T07:20:09.802Z,98.01
2018-12-01T07:21:19.981Z,98.2
2018-12-01T07:22:29.887Z,98.2
2018-12-01T07:23:40.021Z,97.91
2018-12-01T07:24:50.156Z,98.1
2018-12-01T07:26:00.348Z,98.2
2018-12-01T07:27:10.599Z,98.29
2018-12-01T07:28:21.478Z,98.29
2018-12-01T07:29:31.935Z,98.29
2018-12-01T07:30:41.796Z,98.29
2018-12-01T07:31:51.960Z,98.63
2018-12-01T07:33:02.145Z,98.72
2018-12-01T07:34:12.278Z,98.25
2018-12-01T07:35:22.449Z,98.25
2018-12-01T07:36:32.579Z,97.53
2018-12-01T07:37:42.727Z,97.96
2018-12-01T07:38:52.670Z,97.77
2018-12-01T07:40:06.277Z,97.96
2018-12-01T07:41:16.237Z,98.15
2018-12-01T07:42:26.361Z,97.77
2018-12-01T07:43:36.297Z,97.87
2018-12-01T07:44:47.051Z,97.87
2018-12-01T07:45:57.444Z,97.87
2018-12-01T07:47:07.595Z,98.15
2018-12-01T07:48:17.717Z,97.68
2018-12-01T07:49:27.865Z,97.87
2018-12-01T07:50:37.998Z,97.49
2018-12-01T07:51:48.139Z,97.39
2018-12-01T07:52:58.043Z,97.58
2018-12-01T07:54:08.189Z,97.39
2018-12-01T07:55:18.105Z,97.77
2018-12-01T07:56:27.958Z,97.54
2018-12-01T07:57:37.870Z,97.63
2018-12-01T07:58:48.023Z,97.73
2018-12-01T07:59:58.207Z,97.92
2018-12-01T08:01:08.621Z,97.25
2018-12-01T08:02:18.877Z,97.73
2018-12-01T08:03:29.347Z,96.78
2018-12-01T08:04:39.487Z,96.78
2018-12-01T08:05:49.619Z,97.35
2018-12-01T08:07:00.005Z,97.21
2018-12-01T08:08:10.949Z,97.02
2018-12-01T08:09:21.169Z,97.02
2018-12-01T08:10:31.330Z,96.55
2018-12-01T08:11:41.530Z,96.64
2018-12-01T08:12:51.703Z,97.02
2018-12-01T08:14:01.860Z,96.83
2018-12-01T08:15:12.000Z,96.64
2018-12-01T08:16:22.140Z,96.73
2018-12-01T08:17:32.294Z,97.02
2018-12-01T08:18:42.449Z,97.21
2018-12-01T08:19:52.592Z,96.83
2018-12-01T08:21:02.479Z,97.68
2018-12-01T08:22:12.603Z,97.78
2018-12-01T08:23:22.729Z,97.49
2018-12-01T08:24:32.642Z,97.68
2018-12-01T08:25:42.838Z,97.97
2018-12-01T08:26:52.990Z,97.68
2018-12-01T08:28:03.274Z,98.01
2018-12-01T08:29:13.440Z,97.82
2018-12-01T08:30:23.574Z,98.2
2018-12-01T08:31:33.715Z,98.68
2018-12-01T08:32:43.303Z,98.49
2018-12-01T08:33:53.445Z,98.49
2018-12-01T08:35:03.585Z,98.68
2018-12-01T08:36:13.722Z,98.68
2018-12-01T08:37:23.902Z,98.11
2018-12-01T08:38:34.032Z,97.82
2018-12-01T08:39:44.195Z,97.92
2018-12-01T08:40:54.334Z,98.01
2018-12-01T08:42:04.466Z,97.82
2018-12-01T08:43:14.349Z,97.82
2018-12-01T08:44:24.731Z,97.73
2018-12-01T08:45:34.621Z,97.21
2018-12-01T08:46:44.785Z,97.49
2018-12-01T08:47:54.908Z,97.4
2018-12-01T08:49:05.933Z,97.49
2018-12-01T08:50:16.145Z,97.59
2018-12-01T08:51:26.291Z,97.59
2018-12-01T08:52:36.472Z,97.68
2018-12-01T08:53:46.645Z,96.92
2018-12-01T08:54:56.787Z,97.21
2018-12-01T08:56:06.955Z,97.11
2018-12-01T08:57:17.352Z,97.4
2018-12-01T08:58:27.344Z,97.21
2018-12-01T08:59:37.549Z,96.92
2018-12-01T09:00:47.689Z,97.3
2018-12-01T09:01:57.837Z,96.92
2018-12-01T09:03:08.085Z,97.45
2018-12-01T09:04:18.230Z,97.35
2018-12-01T09:05:28.397Z,97.35
2018-12-01T09:06:38.282Z,97.49
2018-12-01T09:07:48.409Z,97.87
2018-12-01T09:08:58.495Z,97.21
2018-12-01T09:10:11.574Z,97.97
2018-12-01T09:11:21.705Z,98.06
2018-12-01T09:12:31.682Z,98.25
2018-12-01T09:13:41.610Z,98.44
2018-12-01T09:14:51.496Z,97.87
2018-12-01T09:16:01.428Z,98.06
2018-12-01T09:17:11.558Z,97.97
2018-12-01T09:18:21.688Z,98.06
2018-12-01T09:19:31.557Z,97.97
2018-12-01T09:20:41.727Z,98.44
2018-12-01T09:21:51.560Z,98.06
2018-12-01T09:23:01.290Z,98.25
2018-12-01T09:24:11.410Z,98.35
2018-12-01T09:25:21.526Z,98.16
2018-12-01T09:26:31.657Z,97.68
2018-12-01T09:27:41.791Z,98.63
2018-12-01T09:28:51.667Z,98.63
2018-12-01T09:30:01.770Z,98.54
2018-12-01T09:31:11.946Z,98.35
2018-12-01T09:32:22.083Z,98.35
2018-12-01T09:33:32.210Z,98.35
2018-12-01T09:34:42.344Z,98.63
2018-12-01T09:35:52.222Z,98.16
2018-12-01T09:37:03.214Z,97.87
2018-12-01T09:38:13.094Z,98.16
2018-12-01T09:39:23.211Z,97.97
2018-12-01T09:40:33.327Z,97.87
2018-12-01T09:41:43.171Z,98.35
2018-12-01T09:42:53.369Z,97.68
2018-12-01T09:44:05.377Z,98.16
2018-12-01T09:45:15.016Z,97.78
2018-12-01T09:46:24.892Z,97.68
2018-12-01T09:47:35.096Z,97.49
2018-12-01T09:48:44.976Z,97.21
2018-12-01T09:49:55.161Z,97.3
2018-12-01T09:51:05.303Z,97.59
2018-12-01T09:52:16.163Z,96.88
2018-12-01T09:53:27.502Z,97.45
2018-12-01T09:54:38.973Z,97.64
2018-12-01T09:55:50.091Z,97.73
2018-12-01T09:57:01.283Z,96.88
2018-12-01T09:58:12.149Z,97.35
2018-12-01T09:59:22.294Z,97.73
2018-12-01T10:00:32.739Z,97.54
2018-12-01T10:01:42.487Z,97.45
2018-12-01T10:02:52.610Z,97.83
2018-12-01T10:04:02.853Z,97.73
2018-12-01T10:05:13.003Z,97.73
2018-12-01T10:06:23.045Z,97.64
2018-12-01T10:07:33.231Z,97.54
2018-12-01T10:08:43.426Z,97.35
2018-12-01T10:09:53.404Z,97.35
2018-12-01T10:11:03.950Z,97.45
2018-12-01T10:12:13.927Z,97.54
2018-12-01T10:13:24.054Z,97.73
2018-12-01T10:14:34.210Z,97.73
2018-12-01T10:15:44.350Z,97.83
2018-12-01T10:16:54.710Z,97.83
2018-12-01T10:18:06.086Z,97.92
2018-12-01T10:19:16.221Z,97.92
2018-12-01T10:20:26.334Z,97.83
2018-12-01T10:21:36.477Z,98.3
2018-12-01T10:22:46.626Z,98.11
2018-12-01T10:23:56.745Z,97.97
2018-12-01T10:25:06.887Z,98.63
2018-12-01T10:26:17.033Z,98.35
2018-12-01T10:27:27.163Z,98.25
2018-12-01T10:28:37.304Z,98.25
2018-12-01T10:29:47.450Z,98.25
2018-12-01T10:30:57.588Z,98.06
2018-12-01T10:32:08.243Z,98.35
2018-12-01T10:33:18.383Z,98.25
2018-12-01T10:34:28.514Z,98.44
2018-12-01T10:35:38.651Z,98.54
2018-12-01T10:36:48.533Z,98.25
2018-12-01T10:37:58.685Z,98.44
2018-12-01T10:39:08.833Z,98.54
2018-12-01T10:40:18.986Z,98.44
2018-12-01T10:41:29.206Z,98.54
2018-12-01T10:42:39.088Z,98.35
2018-12-01T10:43:49.244Z,98.35
2018-12-01T10:44:59.386Z,98.25
2018-12-01T10:46:09.275Z,98.44
2018-12-01T10:47:19.275Z,98.54
2018-12-01T10:48:29.417Z,98.44
2018-12-01T10:49:39.557Z,98.44
2018-12-01T10:50:49.756Z,98.54
2018-12-01T10:51:59.881Z,98.63
2018-12-01T10:53:10.025Z,98.72
2018-12-01T10:54:19.856Z,98.63
2018-12-01T10:55:30.008Z,98.82
2018-12-01T10:56:39.878Z,98.63
2018-12-01T10:57:50.046Z,98.44
2018-12-01T10:59:00.175Z,98.54
2018-12-01T11:00:11.107Z,98.25
2018-12-01T11:01:21.297Z,98.25
2018-12-01T11:02:31.432Z,98.35
2018-12-01T11:03:41.340Z,98.25
2018-12-01T11:04:50.965Z,98.25
2018-12-01T11:06:01.370Z,98.54
2018-12-01T11:07:11.505Z,98.54
2018-12-01T11:08:21.684Z,98.54
2018-12-01T11:09:32.048Z,98.44
2018-12-01T11:10:42.199Z,98.16
2018-12-01T11:11:58.433Z,98.16
2018-12-01T11:13:08.569Z,98.35
2018-12-01T11:14:18.761Z,98.35
2018-12-01T11:15:28.652Z,98.35
2018-12-01T11:16:38.852Z,98.44
2018-12-01T11:17:48.850Z,98.35
2018-12-01T11:18:58.987Z,98.63
2018-12-01T11:20:09.177Z,98.44
2018-12-01T11:21:19.016Z,98.72
2018-12-01T11:22:29.171Z,98.35
2018-12-01T11:23:39.303Z,98.72
2018-12-01T11:24:49.182Z,98.25
2018-12-01T11:25:59.380Z,98.06
2018-12-01T11:27:10.021Z,98.06
2018-12-01T11:28:19.958Z,97.87
2018-12-01T11:29:30.109Z,98.16
2018-12-01T11:30:40.249Z,97.97
2018-12-01T11:31:50.196Z,98.25
2018-12-01T11:33:01.426Z,98.25
2018-12-01T11:34:11.584Z,98.25
2018-12-01T11:35:21.723Z,98.16
2018-12-01T11:36:31.648Z,98.25
2018-12-01T11:37:41.811Z,97.97
2018-12-01T11:38:51.973Z,98.06
2018-12-01T11:40:02.127Z,97.68
2018-12-01T11:41:12.280Z,97.68
2018-12-01T11:42:22.420Z,98.25
2018-12-01T11:43:32.587Z,97.68
2018-12-01T11:44:42.724Z,97.87
2018-12-01T11:45:52.863Z,98.54
2018-12-01T11:47:03.020Z,98.44
2018-12-01T11:48:13.211Z,98.63
2018-12-01T11:49:24.315Z,98.25
2018-12-01T11:50:34.263Z,98.35
2018-12-01T11:51:44.129Z,98.44
2018-12-01T11:52:54.290Z,98.25
2018-12-01T11:54:04.173Z,98.44
2018-12-01T11:55:14.471Z,98.16
2018-12-01T11:56:24.661Z,98.25
2018-12-01T11:57:34.814Z,98.35
2018-12-01T11:58:45.026Z,98.16
2018-12-01T11:59:55.172Z,98.25
2018-12-01T12:01:06.235Z,98.16
2018-12-01T12:02:16.668Z,98.35
2018-12-01T12:03:26.813Z,98.16
2018-12-01T12:04:37.043Z,98.16
2018-12-01T12:05:47.173Z,98.35
2018-12-01T12:06:57.961Z,99.01
2018-12-01T12:08:09.839Z,98.86
2018-12-01T12:09:19.975Z,98.86
2018-12-01T12:10:30.088Z,98.72
2018-12-01T12:11:40.507Z,98.68
2018-12-01T12:12:50.646Z,98.91
2018-12-01T12:14:02.949Z,98.72
2018-12-01T12:15:13.155Z,98.86
2018-12-01T12:16:23.054Z,98.72
2018-12-01T12:17:33.183Z,98.49
2018-12-01T12:18:43.323Z,98.86
2018-12-01T12:19:53.198Z,98.77
2018-12-01T12:21:03.272Z,98.68
2018-12-01T12:22:13.399Z,98.68
2018-12-01T12:23:23.543Z,98.58
2018-12-01T12:24:33.690Z,98.77
2018-12-01T12:25:43.829Z,98.77
2018-12-01T12:26:53.994Z,98.77
2018-12-01T12:28:04.130Z,98.77
2018-12-01T12:29:14.242Z,98.68
2018-12-01T12:30:28.244Z,98.77
2018-12-01T12:31:38.436Z,98.77
2018-12-01T12:32:48.601Z,98.86
2018-12-01T12:33:58.976Z,98.49
2018-12-01T12:35:09.337Z,98.49
2018-12-01T12:36:19.474Z,98.77
2018-12-01T12:37:29.638Z,98.68
2018-12-01T12:38:39.837Z,98.01
2018-12-01T12:39:49.990Z,98.01
2018-12-01T12:41:00.104Z,98.77
2018-12-01T12:42:10.487Z,98.68
2018-12-01T12:43:20.646Z,98.77
2018-12-01T12:44:30.782Z,98.77
2018-12-01T12:45:40.942Z,98.68
2018-12-01T12:46:51.107Z,98.3
2018-12-01T12:48:01.260Z,98.49
2018-12-01T12:49:11.421Z,98.49
2018-12-01T12:50:21.550Z,98.96
2018-12-01T12:51:31.759Z,98.39
2018-12-01T12:52:41.882Z,98.77
2018-12-01T12:53:52.255Z,98.77
2018-12-01T12:55:02.427Z,98.86
2018-12-01T12:56:12.798Z,98.68
2018-12-01T12:57:23.169Z,98.86
2018-12-01T12:58:33.322Z,98.68
2018-12-01T12:59:43.478Z,98.86
2018-12-01T13:00:54.089Z,98.49
2018-12-01T13:02:04.285Z,98.68
2018-12-01T13:03:14.423Z,98.58
2018-12-01T13:04:24.591Z,98.77
2018-12-01T13:05:34.725Z,98.77
2018-12-01T13:06:44.606Z,98.77
2018-12-01T13:07:54.758Z,98.58
2018-12-01T13:09:04.632Z,98.77
2018-12-01T13:10:14.788Z,98.96
2018-12-01T13:11:24.934Z,98.77
2018-12-01T13:12:35.077Z,98.68
2018-12-01T13:13:45.452Z,98.68
2018-12-01T13:14:55.587Z,98.68
2018-12-01T13:16:05.719Z,98.77
2018-12-01T13:17:15.857Z,98.68
2018-12-01T13:18:25.806Z,98.68
2018-12-01T13:19:35.951Z,98.77
2018-12-01T13:20:46.148Z,98.77
2018-12-01T13:21:56.286Z,98.77
2018-12-01T13:23:08.195Z,99.05
2018-12-01T13:24:18.326Z,98.68
2018-12-01T13:25:28.471Z,98.77
2018-12-01T13:26:38.683Z,99.05
2018-12-01T13:27:48.814Z,98.96
2018-12-01T13:28:58.958Z,98.58
2018-12-01T13:30:10.848Z,98.58
2018-12-01T13:31:20.987Z,98.77
2018-12-01T13:32:31.170Z,98.86
2018-12-01T13:33:41.313Z,98.68
2018-12-01T13:34:51.210Z,98.77
2018-12-01T13:36:01.519Z,98.77
2018-12-01T13:37:11.396Z,98.77
2018-12-01T13:38:23.753Z,98.86
2018-12-01T13:39:34.176Z,98.86
2018-12-01T13:40:44.119Z,98.86
2018-12-01T13:41:54.312Z,98.49
2018-12-01T13:43:04.486Z,98.77
2018-12-01T13:44:14.612Z,99.05
2018-12-01T13:45:24.533Z,98.58
2018-12-01T13:46:34.673Z,99.24
2018-12-01T13:47:44.853Z,99.24
2018-12-01T13:48:54.758Z,99.33
2018-12-01T13:50:04.668Z,99.33
2018-12-01T13:51:14.822Z,99.15
2018-12-01T13:52:24.953Z,99.05
2018-12-01T13:53:34.840Z,99.15
2018-12-01T13:54:44.963Z,99.15
2018-12-01T13:55:55.108Z,99.15
2018-12-01T13:57:05.289Z,99.05
2018-12-01T13:58:15.452Z,99.24
2018-12-01T13:59:25.815Z,98.86
2018-12-01T14:00:36.044Z,99.33
2018-12-01T14:01:46.187Z,98.86
2018-12-01T14:02:56.693Z,98.68
2018-12-01T14:04:07.059Z,98.77
2018-12-01T14:05:17.234Z,98.86
2018-12-01T14:06:27.358Z,98.77
2018-12-01T14:07:37.590Z,98.86
2018-12-01T14:08:47.915Z,98.96
2018-12-01T14:09:58.069Z,99.33
2018-12-01T14:11:09.246Z,99.33
2018-12-01T14:12:19.387Z,99.15
2018-12-01T14:13:29.563Z,98.86
2018-12-01T14:14:39.677Z,99.15
2018-12-01T14:15:49.821Z,99.24
2018-12-01T14:16:59.760Z,98.96
2018-12-01T14:18:12.664Z,99.15
2018-12-01T14:19:22.811Z,98.86
2018-12-01T14:20:32.717Z,99.33
2018-12-01T14:21:42.879Z,99.15
2018-12-01T14:22:53.069Z,99.24
2018-12-01T14:24:03.237Z,99.33
2018-12-01T14:25:13.386Z,99.15
2018-12-01T14:26:23.545Z,99.33
2018-12-01T14:27:33.726Z,99.33
2018-12-01T14:28:43.862Z,98.96
2018-12-01T14:29:53.992Z,99.33
2018-12-01T14:31:04.141Z,99.24
2018-12-01T14:32:14.265Z,99.15
2018-12-01T14:33:24.396Z,99.05
2018-12-01T14:34:34.530Z,99.15
2018-12-01T14:35:44.666Z,99.33
2018-12-01T14:36:54.821Z,98.96
2018-12-01T14:38:04.977Z,98.96
2018-12-01T14:39:15.117Z,98.77
2018-12-01T14:40:25.249Z,99.43
2018-12-01T14:41:36.669Z,98.96
2018-12-01T14:42:46.842Z,99.43
2018-12-01T14:43:57.023Z,98.96
2018-12-01T14:45:06.871Z,98.96
2018-12-01T14:46:16.985Z,99.05
2018-12-01T14:47:29.136Z,99.24
2018-12-01T14:48:39.267Z,99.15
2018-12-01T14:49:49.417Z,99.24
2018-12-01T14:50:59.304Z,99.24
2018-12-01T14:52:09.446Z,99.24
2018-12-01T14:53:19.334Z,99.05
2018-12-01T14:54:29.576Z,99.43
2018-12-01T14:55:39.708Z,99.43
2018-12-01T14:56:49.608Z,99.33
2018-12-01T14:57:59.765Z,99.33
2018-12-01T14:59:09.660Z,99.15
2018-12-01T15:00:19.793Z,99.24
2018-12-01T15:01:29.661Z,99.33
2018-12-01T15:02:39.825Z,99.43
2018-12-01T15:03:49.939Z,99.05
2018-12-01T15:04:59.820Z,99.24
2018-12-01T15:06:10.021Z,99.24
2018-12-01T15:07:19.943Z,99.52
2018-12-01T15:08:30.020Z,99.33
2018-12-01T15:09:40.165Z,99.43
2018-12-01T15:10:50.330Z,99.24
2018-12-01T15:12:00.464Z,99.43
2018-12-01T15:13:10.613Z,99.33
2018-12-01T15:14:20.527Z,98.86
2018-12-01T15:15:30.685Z,99.33
2018-12-01T15:16:40.847Z,99.15
2018-12-01T15:17:51.211Z,99.43
2018-12-01T15:19:01.327Z,99.71
2018-12-01T15:20:11.461Z,99.24
2018-12-01T15:21:21.601Z,99.15
2018-12-01T15:22:31.491Z,98.86
2018-12-01T15:23:41.620Z,99.33
2018-12-01T15:24:51.502Z,99.33
2018-12-01T15:26:01.682Z,98.86
2018-12-01T15:27:11.820Z,99.33
2018-12-01T15:28:21.978Z,99.33
2018-12-01T15:29:32.274Z,99.24
2018-12-01T15:30:42.431Z,99.52
2018-12-01T15:31:52.625Z,99.52
2018-12-01T15:33:02.855Z,99.19
2018-12-01T15:34:13.366Z,99.24
2018-12-01T15:35:23.295Z,99.15
2018-12-01T15:36:33.454Z,99.24
2018-12-01T15:37:43.613Z,99.33
2018-12-01T15:38:53.777Z,99.52